createdAt,value
2019-01-21T00:02:07.004Z,101376.47
2019-01-21T00:04:54.247Z,101377.28
2019-01-21T00:07:41.437Z,101368.67
2019-01-21T00:10:29.324Z,101373.78
2019-01-21T00:13:17.316Z,101371.58
2019-01-21T00:16:04.563Z,101370.64
2019-01-21T00:18:52.037Z,101373.58
2019-01-21T00:21:40.355Z,101377.73
2019-01-21T00:24:29.541Z,101377.15
2019-01-21T00:27:17.072Z,101380.06
2019-01-21T00:30:05.511Z,101377.85
2019-01-21T00:39:05.339Z,101378.39
2019-01-21T00:41:53.030Z,101372.60
2019-01-21T00:50:52.594Z,101372.86
2019-01-21T00:53:39.550Z,101374.20
2019-01-21T00:56:42.527Z,101378.19
2019-01-21T00:59:29.750Z,101388.31
2019-01-21T01:02:24.851Z,101383.01
2019-01-21T01:05:11.885Z,101379.45
2019-01-21T01:07:59.447Z,101386.68
2019-01-21T01:10:46.911Z,101386.44
2019-01-21T01:13:34.396Z,101382.35
2019-01-21T01:19:28.064Z,101379.42
2019-01-21T01:34:41.618Z,101391.84
2019-01-21T01:43:41.913Z,101388.52
2019-01-21T01:55:49.051Z,101389.56
2019-01-21T01:58:36.580Z,101389.98
2019-01-21T02:01:23.854Z,101396.86
2019-01-21T02:07:18.401Z,101393.95
2019-01-21T02:10:06.839Z,101386.75
2019-01-21T02:12:55.601Z,101387.29
2019-01-21T02:15:42.870Z,101385.80
2019-01-21T02:18:30.086Z,101382.23
2019-01-21T02:24:39.458Z,101381.28
2019-01-21T02:31:03.735Z,101379.45
2019-01-21T02:38:01.591Z,101381.79
2019-01-21T02:57:08.942Z,101369.75
2019-01-21T03:00:09.921Z,101368.45
2019-01-21T03:22:22.376Z,101371.28
2019-01-21T03:35:17.750Z,101372.80
2019-01-21T03:47:55.311Z,101378.17
2019-01-21T04:00:24.342Z,101369.27
2019-01-21T04:03:35.430Z,101369.39
2019-01-21T04:16:40.743Z,101377.88
2019-01-21T04:39:10.364Z,101373.11
2019-01-21T04:42:25.177Z,101373.78
2019-01-21T04:45:17.922Z,101373.60
2019-01-21T04:57:44.589Z,101375.31
2019-01-21T05:03:55.737Z,101385.38
2019-01-21T05:16:34.622Z,101391.98
2019-01-21T05:19:38.817Z,101398.78
2019-01-21T05:35:39.761Z,101395.99
2019-01-21T05:58:31.771Z,101389.95
2019-01-21T06:04:51.265Z,101390.36
2019-01-21T06:08:03.994Z,101387.09
2019-01-21T06:11:07.597Z,101392.01
2019-01-21T06:24:06.376Z,101404.95
2019-01-21T06:27:22.712Z,101394.73
2019-01-21T06:30:35.430Z,101404.58
2019-01-21T06:33:44.567Z,101406.48
2019-01-21T06:36:36.373Z,101402.79
2019-01-21T06:39:27.829Z,101404.46
2019-01-21T06:42:35.823Z,101404.89
2019-01-21T06:45:34.419Z,101406.90
2019-01-21T06:52:18.378Z,101411.66
2019-01-21T07:02:08.224Z,101412.56
2019-01-21T07:05:37.638Z,101416.09
2019-01-21T07:08:44.315Z,101422.22
2019-01-21T07:11:41.006Z,101426.16
2019-01-21T07:14:37.633Z,101421.47
2019-01-21T07:17:33.956Z,101424.11
2019-01-21T07:20:39.735Z,101423.77
2019-01-21T07:23:53.105Z,101421.97
2019-01-21T07:30:39.613Z,101421.47
2019-01-21T07:33:37.547Z,101415.56
2019-01-21T07:36:35.470Z,101413.95
2019-01-21T07:39:33.899Z,101422.31
2019-01-21T07:42:23.307Z,101428.75
2019-01-21T07:45:13.602Z,101428.42
2019-01-21T07:48:19.795Z,101432.42
2019-01-21T07:51:16.027Z,101426.55
2019-01-21T07:57:34.855Z,101436.17
2019-01-21T08:04:30.535Z,101438.85
2019-01-21T08:07:23.622Z,101438.98
2019-01-21T08:10:34.416Z,101445.08
2019-01-21T08:13:29.615Z,101437.48
2019-01-21T08:29:59.500Z,101443.29
2019-01-21T08:36:03.308Z,101439.60
2019-01-21T08:39:01.834Z,101440.16
2019-01-21T08:52:07.577Z,101443.73
2019-01-21T08:55:15.516Z,101446.85
2019-01-21T08:58:40.248Z,101439.69
2019-01-21T09:01:52.245Z,101437.83
2019-01-21T09:04:58.942Z,101439.53
2019-01-21T09:07:59.427Z,101441.76
2019-01-21T09:14:27.347Z,101436.02
2019-01-21T09:17:47.851Z,101438.55
2019-01-21T09:21:13.699Z,101438.90
2019-01-21T09:24:31.905Z,101443.08
2019-01-21T09:27:26.606Z,101447.81
2019-01-21T09:30:28.387Z,101449.55
2019-01-21T09:33:47.739Z,101450.20
2019-01-21T09:36:50.472Z,101448.55
2019-01-21T09:43:27.654Z,101445.35
2019-01-21T09:52:55.885Z,101440.80
2019-01-21T09:55:44.957Z,101435.62
2019-01-21T09:58:31.579Z,101435.66
2019-01-21T10:01:19.081Z,101437.44
2019-01-21T10:04:06.637Z,101432.34
2019-01-21T10:07:31.081Z,101431.05
2019-01-21T10:10:47.286Z,101426.77
2019-01-21T10:13:59.988Z,101416.75
2019-01-21T10:16:55.084Z,101416.41
2019-01-21T10:20:20.314Z,101418.06
2019-01-21T10:23:39.081Z,101410.25
2019-01-21T10:37:12.305Z,101403.97
2019-01-21T10:40:07.928Z,101395.00
2019-01-21T10:43:21.798Z,101396.22
2019-01-21T10:46:10.014Z,101386.09
2019-01-21T10:49:10.477Z,101384.77
2019-01-21T10:52:15.010Z,101378.78
2019-01-21T10:55:07.987Z,101380.96
2019-01-21T10:58:04.467Z,101375.69
2019-01-21T11:01:18.685Z,101373.46
2019-01-21T11:04:13.969Z,101363.92
2019-01-21T11:07:08.806Z,101360.92
2019-01-21T11:27:10.369Z,101325.80
2019-01-21T11:30:03.267Z,101331.56
2019-01-21T11:33:09.228Z,101322.39
2019-01-21T11:36:12.303Z,101321.06
2019-01-21T11:39:16.845Z,101310.20
2019-01-21T11:42:32.282Z,101311.93
2019-01-21T11:45:29.407Z,101297.22
2019-01-21T11:48:48.867Z,101282.78
2019-01-21T11:58:45.411Z,101272.54
2019-01-21T12:02:03.113Z,101266.46
2019-01-21T12:08:25.380Z,101259.52
2019-01-21T12:11:33.561Z,101256.50
2019-01-21T12:14:21.435Z,101250.00
2019-01-21T12:17:28.393Z,101248.47
2019-01-21T12:20:19.576Z,101229.59
2019-01-21T12:23:20.480Z,101230.47
2019-01-21T12:26:12.364Z,101223.97
2019-01-21T12:29:12.187Z,101223.15
2019-01-21T12:32:00.479Z,101226.08
2019-01-21T12:38:27.418Z,101209.17
2019-01-21T12:41:21.676Z,101215.67
2019-01-21T12:44:19.207Z,101208.30
2019-01-21T12:51:05.402Z,101204.41
2019-01-21T12:54:06.666Z,101199.61
2019-01-21T12:57:06.167Z,101195.27
2019-01-21T12:59:53.360Z,101187.00
2019-01-21T13:02:48.528Z,101186.99
2019-01-21T13:12:09.970Z,101175.23
2019-01-21T13:15:06.726Z,101165.67
2019-01-21T13:18:12.066Z,101156.59
2019-01-21T13:24:25.059Z,101164.45
2019-01-21T13:27:46.555Z,101170.96
2019-01-21T13:30:40.067Z,101172.29
2019-01-21T13:33:36.974Z,101173.19
2019-01-21T16:43:28.662Z,101065.42
2019-01-21T16:46:32.698Z,101056.27
2019-01-21T16:49:20.420Z,101063.53
2019-01-21T16:52:08.288Z,101074.23
2019-01-21T16:54:56.340Z,101077.66
2019-01-21T16:57:44.404Z,101071.98
2019-01-21T17:00:32.464Z,101062.47
2019-01-21T17:03:22.893Z,101056.40
2019-01-21T17:06:10.697Z,101058.48
2019-01-21T17:09:00.531Z,101057.16
2019-01-21T17:11:51.841Z,101055.79
2019-01-21T17:14:42.985Z,101051.45
2019-01-21T17:17:39.993Z,101048.83
2019-01-21T17:23:51.094Z,101045.70
2019-01-21T17:42:14.144Z,101029.94
2019-01-21T17:45:02.721Z,101025.60
2019-01-21T17:47:51.240Z,101016.05
2019-01-21T17:50:48.732Z,101014.67
2019-01-21T17:53:37.904Z,101009.37
2019-01-21T17:56:25.555Z,101009.27
2019-01-21T18:02:30.060Z,101009.80
2019-01-21T18:05:23.329Z,101014.50
2019-01-21T18:08:11.798Z,101016.44
2019-01-21T18:11:01.212Z,101014.57
2019-01-21T18:13:49.392Z,101019.68
2019-01-21T18:16:37.035Z,101022.17
2019-01-21T19:19:15.938Z,101003.19
2019-01-21T19:22:06.258Z,100999.77
2019-01-21T20:05:21.599Z,100960.16
2019-01-21T20:17:37.318Z,100963.10
2019-01-21T20:20:32.990Z,100965.11
2019-01-21T20:23:25.846Z,100957.70
2019-01-21T20:26:13.836Z,100951.17
2019-01-21T20:29:04.070Z,100954.89
2019-01-21T21:10:18.144Z,100946.28
2019-01-21T21:13:09.031Z,100935.03
2019-01-21T21:15:58.525Z,100935.75
2019-01-21T22:34:41.158Z,100886.71
2019-01-21T22:37:31.767Z,100890.71
2019-01-21T22:40:21.137Z,100878.56
2019-01-21T22:43:08.879Z,100882.17
2019-01-21T22:52:32.630Z,100871.52
2019-01-21T22:55:30.722Z,100875.80
2019-01-21T23:04:34.311Z,100878.28
